Terminal Aerodrome Forecast
Issued by NWS

Current Version | Previous Version | Text Only | Print | Product List | Glossary Off
Versions: 1 2 3 4 5 6 7 8 9 10 11 12 13 14 15 16 17 18 19 20 21 22 23 24 25 26 27 28 29 30

392
FTUS41 KRLX 191545 AAB
TAFCKB
TAF AMD
KCKB 191545Z 1916/2012 27013G27KT P6SM OVC030
     FM191800 31011G19KT P6SM VCSH OVC025
     FM192200 31012G20KT P6SM BKN040
     FM200200 32007KT P6SM SCT060=

USA.gov is the U.S. government's official web portal to all federal, state and local government web resources and services.